createdAt,value
2018-01-21T00:00:12.286Z,100171.97
2018-01-21T00:00:36.054Z,100173.28
2018-01-21T00:01:00.205Z,100178.12
2018-01-21T00:01:23.956Z,100174.59
2018-01-21T00:01:47.989Z,100169.80
2018-01-21T00:02:12.019Z,100174.98
2018-01-21T00:02:35.768Z,100175.48
2018-01-21T00:02:59.501Z,100173.28
2018-01-21T00:03:23.257Z,100175.91
2018-01-21T00:03:47.078Z,100177.27
2018-01-21T00:04:10.819Z,100178.12
2018-01-21T00:04:34.875Z,100179.91
2018-01-21T00:04:58.615Z,100184.32
2018-01-21T00:05:22.068Z,100183.42
2018-01-21T00:05:45.819Z,100182.95
2018-01-21T00:06:09.555Z,100184.27
2018-01-21T00:06:33.008Z,100188.69
2018-01-21T00:06:56.739Z,100190.90
2018-01-21T00:07:20.485Z,100192.68
2018-01-21T00:07:44.515Z,100191.36
2018-01-21T00:08:08.519Z,100192.30
2018-01-21T00:08:32.325Z,100193.62
2018-01-21T00:08:55.800Z,100194.94
2018-01-21T00:09:19.555Z,100200.20
2018-01-21T00:09:43.296Z,100194.47
2018-01-21T00:10:06.967Z,100197.95
2018-01-21T00:10:30.701Z,100196.58
2018-01-21T00:10:54.479Z,100201.84
2018-01-21T00:11:18.259Z,100203.16
2018-01-21T00:11:42.281Z,100201.38
2018-01-21T00:12:06.290Z,100203.59
2018-01-21T00:12:30.051Z,100201.80
2018-01-21T00:12:53.507Z,100201.38
2018-01-21T00:13:17.253Z,100205.32
2018-01-21T00:13:40.984Z,100200.95
2018-01-21T00:14:04.504Z,100206.64
2018-01-21T00:14:28.303Z,100204.48
2018-01-21T00:14:52.034Z,100205.37
2018-01-21T00:15:16.049Z,100199.64
2018-01-21T00:15:39.804Z,100198.75
2018-01-21T00:16:03.559Z,100200.95
2018-01-21T00:16:27.291Z,100205.32
2018-01-21T00:16:50.863Z,100204.01
2018-01-21T00:17:14.882Z,100210.16
2018-01-21T00:17:38.920Z,100209.73
2018-01-21T00:18:02.672Z,100210.16
2018-01-21T00:18:26.410Z,100209.31
2018-01-21T00:18:50.159Z,100208.00
2018-01-21T00:19:13.939Z,100213.73
2018-01-21T00:19:37.675Z,100208.00
2018-01-21T00:20:01.698Z,100210.20
2018-01-21T00:20:25.733Z,100208.05
2018-01-21T00:20:49.567Z,100210.67
2018-01-21T00:21:13.596Z,100208.94
2018-01-21T00:21:37.607Z,100209.41
2018-01-21T00:22:01.619Z,100212.92
2018-01-21T00:22:36.339Z,100215.17
2018-01-21T00:23:00.102Z,100212.16
2018-01-21T00:23:23.841Z,100211.69
2018-01-21T00:23:47.611Z,100209.95
2018-01-21T00:24:11.354Z,100208.16
2018-01-21T00:24:35.414Z,100211.61
2018-01-21T00:24:59.168Z,100210.72
2018-01-21T00:25:22.611Z,100211.56
2018-01-21T00:25:46.340Z,100217.30
2018-01-21T00:26:10.558Z,100214.66
2018-01-21T00:26:35.063Z,100214.20
2018-01-21T00:26:58.577Z,100224.30
2018-01-21T00:27:22.323Z,100213.34
2018-01-21T00:27:46.075Z,100219.45
2018-01-21T00:28:10.091Z,100218.14
2018-01-21T00:28:34.096Z,100220.35
2018-01-21T00:28:57.844Z,100218.56
2018-01-21T00:29:21.585Z,100222.94
2018-01-21T00:29:45.342Z,100227.35
2018-01-21T00:30:09.083Z,100222.47
2018-01-21T00:30:32.852Z,100228.16
2018-01-21T00:30:56.899Z,100224.20
2018-01-21T00:31:20.969Z,100226.84
2018-01-21T00:31:44.733Z,100228.53
2018-01-21T00:32:08.783Z,100225.05
2018-01-21T00:32:32.807Z,100229.34
2018-01-21T00:32:56.587Z,100232.05
2018-01-21T00:33:20.043Z,100233.80
2018-01-21T00:33:43.776Z,100235.11
2018-01-21T00:34:07.504Z,100225.48
2018-01-21T00:34:30.997Z,100237.73
2018-01-21T00:34:54.751Z,100231.16
2018-01-21T00:35:18.479Z,100235.03
2018-01-21T00:35:42.502Z,100239.83
2018-01-21T00:36:06.512Z,100238.51
2018-01-21T00:36:30.317Z,100237.20
2018-01-21T00:36:53.845Z,100237.16
2018-01-21T00:37:17.587Z,100237.62
2018-01-21T00:37:41.325Z,100238.05
2018-01-21T00:38:05.336Z,100242.84
2018-01-21T00:38:29.091Z,100239.78
2018-01-21T00:38:52.850Z,100240.20
2018-01-21T00:39:16.579Z,100241.95
2018-01-21T00:39:40.318Z,100246.73
2018-01-21T00:40:04.112Z,100245.84
2018-01-21T00:40:28.119Z,100242.80
2018-01-21T00:40:52.121Z,100249.80
2018-01-21T00:41:15.843Z,100242.30
2018-01-21T00:41:39.560Z,100246.31
2018-01-21T00:42:03.312Z,100244.92
2018-01-21T00:42:27.062Z,100248.48
2018-01-21T00:42:50.826Z,100248.48
2018-01-21T00:43:14.844Z,100249.80
2018-01-21T00:43:38.858Z,100252.42
2018-01-21T00:44:02.318Z,100249.72
2018-01-21T00:44:26.075Z,100248.40
2018-01-21T00:44:49.823Z,100251.03
2018-01-21T00:45:13.628Z,100250.61
2018-01-21T00:45:36.739Z,100254.98
2018-01-21T00:46:00.484Z,100255.88
2018-01-21T00:46:24.215Z,100257.61
2018-01-21T00:46:47.951Z,100260.20
2018-01-21T00:47:11.681Z,100253.23
2018-01-21T00:47:35.423Z,100261.55
2018-01-21T00:47:58.876Z,100263.77
2018-01-21T00:48:22.611Z,100265.97
2018-01-21T00:48:46.016Z,100264.66
2018-01-21T00:49:09.818Z,100260.23
2018-01-21T00:49:33.555Z,100265.16
2018-01-21T00:49:57.297Z,100263.34
2018-01-21T00:50:21.413Z,100267.71
2018-01-21T00:50:45.156Z,100272.55
2018-01-21T00:51:08.597Z,100267.28
2018-01-21T00:51:32.329Z,100271.66
2018-01-21T00:51:56.083Z,100273.05
2018-01-21T00:52:19.533Z,100277.00
2018-01-21T00:52:43.268Z,100274.79
2018-01-21T00:53:07.023Z,100277.00
2018-01-21T00:53:30.464Z,100276.15
2018-01-21T00:53:54.203Z,100275.34
2018-01-21T00:54:17.947Z,100280.19
2018-01-21T00:54:41.998Z,100278.87
2018-01-21T00:55:06.023Z,100282.81
2018-01-21T00:55:29.794Z,100278.87
2018-01-21T00:55:53.269Z,100282.81
2018-01-21T00:56:17.045Z,100284.17
2018-01-21T00:56:40.827Z,100283.78
2018-01-21T00:57:04.846Z,100282.52
2018-01-21T00:57:28.886Z,100280.77
2018-01-21T00:57:52.639Z,100282.55
2018-01-21T00:58:16.213Z,100283.88
2018-01-21T00:58:39.947Z,100286.92
2018-01-21T00:59:03.667Z,100285.61
2018-01-21T00:59:27.752Z,100290.49
2018-01-21T00:59:51.496Z,100289.60
2018-01-21T01:00:14.941Z,100288.70
2018-01-21T01:00:38.695Z,100291.80
2018-01-21T01:01:02.439Z,100282.64
2018-01-21T01:01:26.450Z,100290.53
2018-01-21T01:01:50.461Z,100291.85
2018-01-21T01:02:14.480Z,100293.16
2018-01-21T01:02:38.219Z,100298.03
2018-01-21T01:03:01.954Z,100295.41
2018-01-21T01:03:25.699Z,100295.88
2018-01-21T01:03:49.439Z,100300.67
2018-01-21T01:04:13.212Z,100300.67
2018-01-21T01:04:37.246Z,100297.11
2018-01-21T01:05:01.306Z,100302.33
2018-01-21T01:05:25.047Z,100305.85
2018-01-21T01:05:48.512Z,100304.11
2018-01-21T01:06:12.276Z,100306.32
2018-01-21T01:06:36.012Z,100309.38
2018-01-21T01:07:00.044Z,100311.11
2018-01-21T01:07:24.080Z,100307.17
2018-01-21T01:07:47.831Z,100312.86
2018-01-21T01:08:11.276Z,100311.54
2018-01-21T01:08:35.005Z,100312.00
2018-01-21T01:08:58.760Z,100311.54
2018-01-21T01:09:22.204Z,100311.58
2018-01-21T01:09:45.924Z,100312.90
2018-01-21T01:10:09.672Z,100314.64
2018-01-21T01:10:33.736Z,100317.23
2018-01-21T01:10:57.781Z,100319.86
2018-01-21T01:11:21.524Z,100320.28
2018-01-21T01:11:44.606Z,100324.69
2018-01-21T01:12:08.629Z,100323.76
2018-01-21T01:12:32.639Z,100318.54
2018-01-21T01:12:56.399Z,100326.39
2018-01-21T01:13:19.872Z,100329.87
2018-01-21T01:13:43.622Z,100326.81
2018-01-21T01:14:07.351Z,100329.87
2018-01-21T01:14:31.375Z,100325.50
2018-01-21T01:14:55.434Z,100331.19
2018-01-21T01:15:19.167Z,100332.92
2018-01-21T01:15:42.892Z,100332.84
2018-01-21T01:16:06.642Z,100328.91
2018-01-21T01:16:30.395Z,100326.70
2018-01-21T01:16:54.140Z,100330.22
2018-01-21T01:17:18.180Z,100330.64
2018-01-21T01:17:42.239Z,100332.80
2018-01-21T01:18:06.157Z,100334.55
2018-01-21T01:18:30.200Z,100336.28
2018-01-21T01:18:54.014Z,100330.12
2018-01-21T01:19:18.045Z,100331.95
2018-01-21T01:19:42.058Z,100336.33
2018-01-21T01:20:05.844Z,100335.91
2018-01-21T01:20:29.287Z,100341.66
2018-01-21T01:20:53.117Z,100338.95
2018-01-21T01:21:16.896Z,100342.48
2018-01-21T01:21:40.931Z,100340.35
2018-01-21T01:22:04.005Z,100339.08
2018-01-21T01:22:27.735Z,100345.23
2018-01-21T01:22:51.779Z,100339.16
2018-01-21T01:23:15.229Z,100341.80
2018-01-21T01:23:38.956Z,100344.47
2018-01-21T01:24:02.699Z,100348.41
2018-01-21T01:24:26.435Z,100345.74
2018-01-21T01:24:49.876Z,100347.09
2018-01-21T01:25:13.624Z,100343.23
2018-01-21T01:25:37.387Z,100348.91
2018-01-21T01:26:00.838Z,100347.22
2018-01-21T01:26:24.600Z,100351.63
2018-01-21T01:26:48.333Z,100348.62
2018-01-21T01:27:12.363Z,100351.25
2018-01-21T01:27:36.395Z,100356.16
2018-01-21T01:27:59.877Z,100358.33
2018-01-21T01:28:23.621Z,100355.70
2018-01-21T01:28:47.359Z,100358.38
2018-01-21T01:29:11.103Z,100359.22
2018-01-21T01:29:34.556Z,100362.31
2018-01-21T01:29:58.315Z,100358.38
2018-01-21T01:30:22.062Z,100361.00
2018-01-21T01:30:46.071Z,100368.00
2018-01-21T01:31:10.088Z,100361.35
2018-01-21T01:31:33.583Z,100359.64
2018-01-21T01:31:57.311Z,100370.09
2018-01-21T01:32:26.586Z,100366.61
2018-01-21T01:32:50.209Z,100378.88
2018-01-21T01:33:13.948Z,100374.46
2018-01-21T01:33:37.430Z,100377.52
2018-01-21T01:34:01.168Z,100370.52
2018-01-21T01:34:24.959Z,100376.20
2018-01-21T01:34:48.708Z,100372.25
2018-01-21T01:35:12.755Z,100375.78
2018-01-21T01:35:36.787Z,100375.35
2018-01-21T01:36:00.568Z,100377.94
2018-01-21T01:36:24.026Z,100384.98
2018-01-21T01:36:47.810Z,100377.52
2018-01-21T01:37:11.580Z,100378.41
2018-01-21T01:37:35.440Z,100376.67
2018-01-21T01:37:58.916Z,100385.41
2018-01-21T01:38:22.671Z,100381.46
2018-01-21T01:38:46.432Z,100383.63
2018-01-21T01:39:10.465Z,100381.42
2018-01-21T01:39:34.487Z,100384.90
2018-01-21T01:39:57.865Z,100383.12
2018-01-21T01:40:21.628Z,100383.93
2018-01-21T01:40:45.382Z,100386.64
2018-01-21T01:41:09.139Z,100392.75
2018-01-21T01:41:33.241Z,100394.41
2018-01-21T01:41:57.300Z,100393.14
2018-01-21T01:42:21.064Z,100389.63
2018-01-21T01:42:44.502Z,100385.67
2018-01-21T01:43:08.235Z,100391.36
2018-01-21T01:43:31.983Z,100384.43
2018-01-21T01:43:55.459Z,100388.80
2018-01-21T01:44:19.196Z,100398.48
2018-01-21T01:44:42.965Z,100393.22
2018-01-21T01:45:06.994Z,100394.53
2018-01-21T01:45:31.017Z,100397.63
2018-01-21T01:45:54.472Z,100396.78
2018-01-21T01:46:18.237Z,100403.73
2018-01-21T01:46:41.963Z,100400.73
2018-01-21T01:47:05.776Z,100402.94
2018-01-21T01:47:29.847Z,100404.25
2018-01-21T01:47:53.872Z,100405.61
2018-01-21T01:48:17.621Z,100406.92
2018-01-21T01:48:40.667Z,100399.92
2018-01-21T01:49:04.111Z,100403.44
2018-01-21T01:49:27.865Z,100412.26
2018-01-21T01:49:51.629Z,100413.15
2018-01-21T01:50:15.651Z,100411.41
2018-01-21T01:50:39.707Z,100411.83
2018-01-21T01:51:03.454Z,100414.47
2018-01-21T01:51:26.908Z,100415.28
2018-01-21T01:51:50.887Z,100416.25
2018-01-21T01:52:14.723Z,100415.78
2018-01-21T01:52:38.673Z,100412.26
2018-01-21T01:53:02.423Z,100419.23
2018-01-21T01:53:26.471Z,100417.09
2018-01-21T01:53:50.223Z,100417.09
2018-01-21T01:54:13.655Z,100414.08
2018-01-21T01:54:37.407Z,100419.73
2018-01-21T01:55:01.168Z,100423.67
2018-01-21T01:55:24.627Z,100418.88
2018-01-21T01:55:48.380Z,100421.39
2018-01-21T01:56:12.137Z,100420.97
2018-01-21T01:56:36.175Z,100424.91
2018-01-21T01:57:00.213Z,100420.55
2018-01-21T01:57:24.069Z,100421.86
2018-01-21T01:57:48.096Z,100424.09
2018-01-21T01:58:12.138Z,100425.77
2018-01-21T01:58:35.900Z,100421.86
2018-01-21T01:58:59.365Z,100429.28
2018-01-21T01:59:23.103Z,100427.50
2018-01-21T01:59:46.984Z,100430.98
2018-01-21T02:00:10.733Z,100427.46
2018-01-21T02:00:34.189Z,100428.31
2018-01-21T02:00:57.931Z,100427.88
2018-01-21T02:01:21.692Z,100426.14
2018-01-21T02:01:45.190Z,100426.61
2018-01-21T02:02:08.759Z,100429.63
2018-01-21T02:02:32.810Z,100431.02
2018-01-21T02:02:56.575Z,100428.39
2018-01-21T02:03:20.012Z,100431.88
2018-01-21T02:03:43.761Z,100431.45
2018-01-21T02:04:07.514Z,100432.34
2018-01-21T02:04:31.560Z,100439.81
2018-01-21T02:04:55.594Z,100438.95
2018-01-21T02:05:19.350Z,100433.30
2018-01-21T02:05:42.799Z,100443.83
2018-01-21T02:06:06.561Z,100443.83
2018-01-21T02:06:30.346Z,100441.20
2018-01-21T02:06:54.373Z,100444.22
2018-01-21T02:07:18.268Z,100443.83
2018-01-21T02:07:42.356Z,100443.41
2018-01-21T02:08:05.910Z,100447.77
2018-01-21T02:08:29.692Z,100449.91
2018-01-21T02:08:53.431Z,100447.77
2018-01-21T02:09:17.156Z,100452.61
2018-01-21T02:09:41.184Z,100452.53
2018-01-21T02:10:05.221Z,100449.09
2018-01-21T02:10:28.966Z,100450.87
2018-01-21T02:10:52.785Z,100449.56
2018-01-21T02:11:16.267Z,100449.98
2018-01-21T02:11:39.646Z,100445.19
2018-01-21T02:12:03.416Z,100450.87
2018-01-21T02:12:27.169Z,100450.02
2018-01-21T02:12:50.946Z,100452.23
2018-01-21T02:13:15.053Z,100454.44
2018-01-21T02:13:38.808Z,100447.86
2018-01-21T02:14:02.289Z,100453.16
2018-01-21T02:14:26.067Z,100454.48
2018-01-21T02:14:49.834Z,100454.94
2018-01-21T02:15:13.855Z,100453.20
2018-01-21T02:15:37.304Z,100458.11
2018-01-21T02:16:01.058Z,100453.31
2018-01-21T02:16:24.809Z,100459.89
2018-01-21T02:16:48.566Z,100461.25
2018-01-21T02:17:12.323Z,100459.55
2018-01-21T02:17:36.068Z,100460.94
2018-01-21T02:17:59.833Z,100460.56
2018-01-21T02:18:23.578Z,100467.64
2018-01-21T02:18:47.606Z,100459.83
2018-01-21T02:19:10.387Z,100471.66
2018-01-21T02:19:33.827Z,100471.32
2018-01-21T02:19:57.226Z,100473.95
2018-01-21T02:20:20.608Z,100473.10
2018-01-21T02:20:44.127Z,100464.78
2018-01-21T02:21:07.869Z,100466.53
2018-01-21T02:21:31.610Z,100477.13
2018-01-21T02:21:55.007Z,100470.05
2018-01-21T02:22:18.801Z,100473.56
2018-01-21T02:22:42.550Z,100472.25
2018-01-21T02:23:06.314Z,100475.38
2018-01-21T02:23:30.073Z,100473.22
2018-01-21T02:23:53.520Z,100473.22
2018-01-21T02:24:17.247Z,100482.00
2018-01-21T02:24:40.988Z,100471.90
2018-01-21T02:25:04.485Z,100475.42
2018-01-21T02:25:28.211Z,100478.94
2018-01-21T02:25:51.988Z,100480.26
2018-01-21T02:26:16.003Z,100474.14
2018-01-21T02:26:40.009Z,100479.41
2018-01-21T02:27:03.751Z,100482.03
2018-01-21T02:27:27.198Z,100482.03
2018-01-21T02:27:50.942Z,100488.19
2018-01-21T02:28:14.738Z,100482.50
2018-01-21T02:28:38.195Z,100485.59
2018-01-21T02:29:01.735Z,100488.30
2018-01-21T02:29:25.741Z,100488.30
2018-01-21T02:29:49.759Z,100485.25
2018-01-21T02:30:13.215Z,100488.81
2018-01-21T02:30:36.976Z,100487.95
2018-01-21T02:31:00.794Z,100491.95
2018-01-21T02:31:24.542Z,100490.23
2018-01-21T02:31:48.568Z,100494.58
2018-01-21T02:32:12.600Z,100489.39
2018-01-21T02:32:36.362Z,100497.74
2018-01-21T02:32:59.824Z,100490.74
2018-01-21T02:33:23.583Z,100490.31
2018-01-21T02:33:47.336Z,100488.16
2018-01-21T02:34:11.400Z,100478.06
2018-01-21T02:34:34.948Z,100483.36
2018-01-21T02:34:58.693Z,100485.09
2018-01-21T02:35:22.437Z,100482.52
2018-01-21T02:35:46.204Z,100485.21
2018-01-21T02:36:10.261Z,100481.73
2018-01-21T02:36:33.732Z,100484.83
2018-01-21T02:36:57.114Z,100479.19
2018-01-21T02:37:21.129Z,100480.97
2018-01-21T02:37:45.135Z,100482.81
2018-01-21T02:38:08.602Z,100483.33
2018-01-21T02:38:32.359Z,100481.23
2018-01-21T02:38:56.100Z,100481.31
2018-01-21T02:39:19.857Z,100480.11
2018-01-21T02:39:43.892Z,100483.21
2018-01-21T02:40:07.924Z,100492.03
2018-01-21T02:40:31.704Z,100485.11
2018-01-21T02:40:55.115Z,100486.03
2018-01-21T02:41:18.843Z,100485.66
2018-01-21T02:41:42.297Z,100490.13
2018-01-21T02:42:06.031Z,100491.91
2018-01-21T02:42:29.791Z,100495.47
2018-01-21T02:42:53.581Z,100495.09
2018-01-21T02:43:17.038Z,100502.20
2018-01-21T02:43:40.803Z,100498.25
2018-01-21T02:44:04.565Z,100503.52
2018-01-21T02:44:28.577Z,100503.94
2018-01-21T02:44:52.350Z,100499.56
2018-01-21T02:45:16.103Z,100508.34
2018-01-21T02:45:39.824Z,100505.29
2018-01-21T02:46:03.581Z,100507.92
2018-01-21T02:46:27.338Z,100507.92
2018-01-21T02:46:51.377Z,100502.23
2018-01-21T02:47:15.421Z,100511.83
2018-01-21T02:47:39.186Z,100514.45
2018-01-21T02:48:03.212Z,100509.62
2018-01-21T02:48:27.252Z,100516.12
2018-01-21T02:48:51.291Z,100517.39
2018-01-21T02:49:14.676Z,100515.61
2018-01-21T02:49:38.399Z,100519.09
2018-01-21T02:50:02.131Z,100516.81
2018-01-21T02:50:26.266Z,100519.45
2018-01-21T02:50:50.015Z,100526.88
2018-01-21T02:51:14.028Z,100521.57
2018-01-21T02:51:38.078Z,100515.84
2018-01-21T02:52:01.835Z,100522.42
2018-01-21T02:52:25.282Z,100517.12
2018-01-21T02:52:49.054Z,100527.17
2018-01-21T02:53:12.811Z,100518.86
2018-01-21T02:53:36.824Z,100526.25
2018-01-21T02:54:00.886Z,100525.79
2018-01-21T02:54:24.652Z,100528.84
2018-01-21T02:54:48.095Z,100525.36
2018-01-21T02:55:11.843Z,100528.84
2018-01-21T02:55:35.606Z,100528.37
2018-01-21T02:55:59.616Z,100531.86
2018-01-21T02:56:23.633Z,100529.66
2018-01-21T02:56:47.660Z,100535.80
2018-01-21T02:57:11.438Z,100536.65
2018-01-21T02:57:34.903Z,100534.45
2018-01-21T02:57:58.646Z,100537.50
2018-01-21T02:58:22.404Z,100541.45
2018-01-21T02:58:46.490Z,100540.59
2018-01-21T02:59:10.404Z,100543.23
2018-01-21T02:59:34.420Z,100543.65
2018-01-21T02:59:57.882Z,100538.39
2018-01-21T03:00:21.664Z,100544.53
2018-01-21T03:00:45.497Z,100544.97
2018-01-21T03:01:09.233Z,100544.54
2018-01-21T03:01:33.271Z,100545.39
2018-01-21T03:01:56.728Z,100544.54
2018-01-21T03:02:20.504Z,100546.28
2018-01-21T03:02:44.243Z,100545.39
2018-01-21T03:03:08.904Z,100547.98
2018-01-21T03:03:32.656Z,100549.80
2018-01-21T03:03:56.591Z,100550.19
2018-01-21T03:04:20.347Z,100553.23
2018-01-21T03:04:44.081Z,100558.92
2018-01-21T03:05:07.835Z,100559.77
2018-01-21T03:05:31.298Z,100558.03
2018-01-21T03:05:55.036Z,100558.03
2018-01-21T03:06:18.834Z,100558.88
2018-01-21T03:06:42.859Z,100558.88
2018-01-21T03:07:06.900Z,100565.42
2018-01-21T03:07:30.667Z,100561.05
2018-01-21T03:07:54.115Z,100563.22
2018-01-21T03:08:17.864Z,100562.33
2018-01-21T03:08:41.672Z,100562.33
2018-01-21T03:09:05.017Z,100562.75
2018-01-21T03:09:28.775Z,100561.86
2018-01-21T03:09:52.563Z,100558.31
2018-01-21T03:10:16.593Z,100559.63
2018-01-21T03:10:40.101Z,100563.10
2018-01-21T03:11:04.018Z,100567.05
2018-01-21T03:11:27.764Z,100561.36
2018-01-21T03:11:51.504Z,100562.25
2018-01-21T03:12:15.259Z,100560.94
2018-01-21T03:12:38.727Z,100562.75
2018-01-21T03:13:02.461Z,100564.48
2018-01-21T03:13:25.873Z,100568.83
2018-01-21T03:13:49.609Z,100564.48
2018-01-21T03:14:13.350Z,100565.30
2018-01-21T03:14:37.237Z,100567.52
2018-01-21T03:15:01.277Z,100570.14
2018-01-21T03:15:25.048Z,100569.25
2018-01-21T03:15:48.487Z,100573.27
2018-01-21T03:16:12.260Z,100572.88
2018-01-21T03:16:36.140Z,100570.25
2018-01-21T03:16:59.922Z,100574.70
2018-01-21T03:17:23.396Z,100574.31
2018-01-21T03:17:47.163Z,100581.78
2018-01-21T03:18:10.915Z,100578.34
2018-01-21T03:18:34.983Z,100576.21
2018-01-21T03:18:58.731Z,100584.17
2018-01-21T03:19:22.193Z,100578.09
2018-01-21T03:19:45.955Z,100577.72
2018-01-21T03:20:09.725Z,100579.09
2018-01-21T03:20:33.800Z,100582.20
2018-01-21T03:20:57.548Z,100581.77
2018-01-21T03:21:21.027Z,100582.70
2018-01-21T03:21:44.772Z,100584.48
2018-01-21T03:22:08.526Z,100591.52
2018-01-21T03:22:32.481Z,100582.81
2018-01-21T03:22:55.959Z,100586.25
2018-01-21T03:23:19.738Z,100579.29
2018-01-21T03:23:43.482Z,100588.11
2018-01-21T03:24:07.562Z,100588.95
2018-01-21T03:24:31.299Z,100592.90
2018-01-21T03:24:54.791Z,100591.12
2018-01-21T03:25:18.537Z,100584.05
2018-01-21T03:25:42.306Z,100588.84
2018-01-21T03:26:06.356Z,100594.53
2018-01-21T03:26:30.281Z,100591.47
2018-01-21T03:26:54.049Z,100591.05
2018-01-21T03:27:17.487Z,100596.30
2018-01-21T03:27:41.355Z,100594.99
2018-01-21T03:28:05.142Z,100597.16
2018-01-21T03:28:28.903Z,100601.14
2018-01-21T03:28:52.362Z,100605.08
2018-01-21T03:29:16.111Z,100596.30
2018-01-21T03:29:39.867Z,100598.52
2018-01-21T03:30:03.940Z,100599.90
2018-01-21T03:30:27.430Z,100603.77
2018-01-21T03:30:51.204Z,100594.99
2018-01-21T03:31:14.955Z,100602.41
2018-01-21T03:31:38.699Z,100597.20
2018-01-21T03:32:02.732Z,100601.14
2018-01-21T03:32:26.796Z,100606.36
2018-01-21T03:32:50.555Z,100600.25
2018-01-21T03:33:14.594Z,100606.39
2018-01-21T03:33:38.667Z,100607.28
2018-01-21T03:34:02.421Z,100604.27
2018-01-21T03:34:25.878Z,100606.05
2018-01-21T03:34:49.628Z,100604.30
2018-01-21T03:35:13.410Z,100607.01
2018-01-21T03:35:37.480Z,100608.75
2018-01-21T03:36:01.251Z,100612.69
2018-01-21T03:36:24.699Z,100607.86
2018-01-21T03:36:48.459Z,100611.38
2018-01-21T03:37:12.219Z,100612.23
2018-01-21T03:37:36.276Z,100611.38
2018-01-21T03:38:00.332Z,100614.01
2018-01-21T03:38:24.093Z,100611.84
2018-01-21T03:38:48.139Z,100616.32
2018-01-21T03:39:12.171Z,100613.30
2018-01-21T03:39:35.931Z,100614.62
2018-01-21T03:39:59.399Z,100614.69
2018-01-21T03:40:23.163Z,100612.98
2018-01-21T03:40:46.919Z,100619.13
2018-01-21T03:41:10.997Z,100619.59
2018-01-21T03:41:34.749Z,100622.23
2018-01-21T03:41:58.193Z,100621.80
2018-01-21T03:42:21.933Z,100624.86
2018-01-21T03:42:45.685Z,100623.11
2018-01-21T03:43:09.787Z,100628.38
2018-01-21T03:43:33.249Z,100627.06
2018-01-21T03:43:56.996Z,100626.17
2018-01-21T03:44:20.737Z,100624.86
2018-01-21T03:44:44.492Z,100621.80
2018-01-21T03:45:08.536Z,100627.02
2018-01-21T03:45:32.363Z,100630.97
2018-01-21T03:45:56.095Z,100630.47
2018-01-21T03:46:19.851Z,100631.78
2018-01-21T03:46:43.610Z,100625.63
2018-01-21T03:47:07.445Z,100627.45
2018-01-21T03:47:31.499Z,100627.06
2018-01-21T03:47:55.240Z,100621.84
2018-01-21T03:48:19.304Z,100631.08
2018-01-21T03:48:43.335Z,100629.34
2018-01-21T03:49:07.091Z,100631.15
2018-01-21T03:49:30.559Z,100631.61
2018-01-21T03:49:54.291Z,100628.63
2018-01-21T03:50:18.034Z,100625.65
2018-01-21T03:50:42.083Z,100631.41
2018-01-21T03:51:06.123Z,100630.98
2018-01-21T03:51:29.881Z,100635.85
2018-01-21T03:51:53.326Z,100630.66
2018-01-21T03:52:17.087Z,100628.08
2018-01-21T03:52:40.874Z,100634.68
2018-01-21T03:53:04.906Z,100636.00
2018-01-21T03:53:28.355Z,100633.87
2018-01-21T03:53:51.906Z,100630.35
2018-01-21T03:54:15.461Z,100635.67
2018-01-21T03:54:39.024Z,100635.61
2018-01-21T03:55:02.763Z,100641.33
2018-01-21T03:55:26.512Z,100643.56
2018-01-21T03:55:50.009Z,100643.06
2018-01-21T03:56:13.751Z,100647.39
2018-01-21T03:56:37.508Z,100646.08
2018-01-21T03:57:01.537Z,100643.92
2018-01-21T03:57:25.578Z,100639.52
2018-01-21T03:57:49.599Z,100648.21
2018-01-21T03:58:13.344Z,100643.42
2018-01-21T03:58:37.408Z,100645.16
2018-01-21T03:59:00.852Z,100645.05
2018-01-21T03:59:24.632Z,100645.91
2018-01-21T03:59:48.389Z,100652.44
2018-01-21T04:00:14.465Z,100652.39
2018-01-21T04:00:38.233Z,100649.23
2018-01-21T04:01:01.997Z,100652.72
2018-01-21T04:01:25.762Z,100653.56
2018-01-21T04:01:49.420Z,100652.67
2018-01-21T04:02:13.164Z,100650.02
2018-01-21T04:02:36.911Z,100657.36
2018-01-21T04:03:00.948Z,100656.05
2018-01-21T04:03:25.016Z,100661.23
2018-01-21T04:03:48.778Z,100661.20
2018-01-21T04:04:12.223Z,100668.13
2018-01-21T04:04:35.980Z,100662.36
2018-01-21T04:04:59.735Z,100664.10
2018-01-21T04:05:23.172Z,100659.31
2018-01-21T04:05:46.927Z,100654.86
2018-01-21T04:06:10.703Z,100663.17
2018-01-21T04:06:34.733Z,100662.75
2018-01-21T04:06:58.172Z,100662.26
2018-01-21T04:07:21.915Z,100665.27
2018-01-21T04:07:45.691Z,100663.53
2018-01-21T04:08:09.443Z,100667.44
2018-01-21T04:08:32.881Z,100670.53
2018-01-21T04:08:56.613Z,100661.75
2018-01-21T04:09:20.367Z,100664.81
2018-01-21T04:09:43.826Z,100663.03
2018-01-21T04:10:07.560Z,100666.97
2018-01-21T04:10:31.313Z,100667.44
2018-01-21T04:10:55.339Z,100667.86
2018-01-21T04:11:19.391Z,100670.92
2018-01-21T04:11:43.132Z,100667.02
2018-01-21T04:12:06.599Z,100673.20
2018-01-21T04:12:30.443Z,100673.27
2018-01-21T04:12:54.196Z,100667.20
2018-01-21T04:13:18.208Z,100674.70
2018-01-21T04:13:41.958Z,100672.17
2018-01-21T04:14:05.808Z,100673.14
2018-01-21T04:14:29.414Z,100676.30
2018-01-21T04:14:53.147Z,100678.11
2018-01-21T04:15:16.907Z,100668.06
2018-01-21T04:15:40.948Z,100675.59
2018-01-21T04:16:04.970Z,100675.62
2018-01-21T04:16:28.752Z,100675.20
2018-01-21T04:16:52.221Z,100672.65
2018-01-21T04:17:15.956Z,100674.85
2018-01-21T04:17:39.724Z,100681.49
2018-01-21T04:18:03.756Z,100678.48
2018-01-21T04:18:27.777Z,100676.34
2018-01-21T04:18:51.518Z,100674.19
2018-01-21T04:19:14.972Z,100679.55
2018-01-21T04:19:38.704Z,100676.53
2018-01-21T04:20:02.447Z,100676.56
2018-01-21T04:20:26.524Z,100679.73
2018-01-21T04:20:50.530Z,100681.46
2018-01-21T04:21:14.543Z,100685.44
2018-01-21T04:21:38.333Z,100681.08
2018-01-21T04:22:02.360Z,100677.13
2018-01-21T04:22:26.460Z,100676.28
2018-01-21T04:22:50.012Z,100678.48
2018-01-21T04:23:13.556Z,100681.58
2018-01-21T04:23:37.283Z,100687.33
2018-01-21T04:24:01.314Z,100686.90
2018-01-21T04:24:25.054Z,100685.20
2018-01-21T04:24:48.526Z,100688.28
2018-01-21T04:25:12.259Z,100689.14
2018-01-21T04:25:36.011Z,100694.43
2018-01-21T04:26:00.043Z,100686.19
2018-01-21T04:26:24.081Z,100689.74
2018-01-21T04:26:47.852Z,100698.09
2018-01-21T04:27:11.291Z,100693.75
2018-01-21T04:27:35.025Z,100700.79
2018-01-21T04:27:58.775Z,100699.97
2018-01-21T04:28:22.224Z,100698.73
2018-01-21T04:28:45.953Z,100698.30
2018-01-21T04:29:09.731Z,100700.54
2018-01-21T04:29:33.759Z,100703.23
2018-01-21T04:29:57.207Z,100705.52
2018-01-21T04:30:20.939Z,100702.03
2018-01-21T04:30:44.717Z,100704.77
2018-01-21T04:31:08.528Z,100707.00
2018-01-21T04:31:32.540Z,100706.61